Terminal Aerodrome Forecast
Issued by NWS

Home | Current Version | Previous Version | Text Only | Print | Product List | Glossary On
Versions: 1 2 3 4 5 6 7 8 9 10 11 12 13 14 15 16 17 18 19 20 21 22 23
000
FTUS43 KGRR 221400 AAB
TAFBTL
TAF AMD
KBTL 221414Z 2214/2312 12005KT P6SM OVC003
     FM221500 09005KT P6SM OVC007
     FM221600 09006KT P6SM BKN015
     FM221800 08006KT P6SM BKN025
     FM222000 08006KT P6SM BKN035
     FM230500 07004KT 3SM BR BKN015=

USA.gov is the U.S. government's official web portal to all federal, state and local government web resources and services.